sensor_id;sensor_type;location;lat;lon;timestamp;P1;durP1;ratioP1;P2;durP2;ratioP2
10934;SDS011;5520;45.752;4.874;2023-08-08T00:01:43;0.77;;;0.77;;
10934;SDS011;5520;45.752;4.874;2023-08-08T00:04:11;1.67;;;1.00;;
10934;SDS011;5520;45.752;4.874;2023-08-08T00:06:38;2.93;;;0.83;;
10934;SDS011;5520;45.752;4.874;2023-08-08T00:09:06;1.10;;;1.00;;
10934;SDS011;5520;45.752;4.874;2023-08-08T00:11:34;0.90;;;0.83;;
10934;SDS011;5520;45.752;4.874;2023-08-08T00:14:02;1.60;;;0.77;;
10934;SDS011;5520;45.752;4.874;2023-08-08T00:16:31;1.73;;;0.77;;
10934;SDS011;5520;45.752;4.874;2023-08-08T00:18:59;1.00;;;0.80;;
10934;SDS011;5520;45.752;4.874;2023-08-08T00:21:27;1.60;;;0.90;;
10934;SDS011;5520;45.752;4.874;2023-08-08T00:23:54;1.20;;;1.20;;
10934;SDS011;5520;45.752;4.874;2023-08-08T00:26:22;0.80;;;0.80;;
10934;SDS011;5520;45.752;4.874;2023-08-08T00:28:50;1.83;;;0.90;;
10934;SDS011;5520;45.752;4.874;2023-08-08T00:31:18;1.00;;;1.00;;
10934;SDS011;5520;45.752;4.874;2023-08-08T00:33:47;3.93;;;1.00;;
10934;SDS011;5520;45.752;4.874;2023-08-08T00:36:15;1.63;;;1.00;;
10934;SDS011;5520;45.752;4.874;2023-08-08T00:38:43;1.03;;;0.93;;
10934;SDS011;5520;45.752;4.874;2023-08-08T00:41:11;1.57;;;0.90;;
10934;SDS011;5520;45.752;4.874;2023-08-08T00:43:38;3.47;;;1.30;;
10934;SDS011;5520;45.752;4.874;2023-08-08T00:46:06;1.23;;;1.07;;
10934;SDS011;5520;45.752;4.874;2023-08-08T00:48:34;2.10;;;1.30;;
10934;SDS011;5520;45.752;4.874;2023-08-08T00:51:03;0.70;;;0.70;;
10934;SDS011;5520;45.752;4.874;2023-08-08T00:53:31;2.90;;;1.13;;
10934;SDS011;5520;45.752;4.874;2023-08-08T00:55:59;0.90;;;0.90;;
10934;SDS011;5520;45.752;4.874;2023-08-08T00:58:27;1.53;;;0.90;;
10934;SDS011;5520;45.752;4.874;2023-08-08T01:00:55;0.90;;;0.90;;
10934;SDS011;5520;45.752;4.874;2023-08-08T01:03:26;1.30;;;0.80;;
10934;SDS011;5520;45.752;4.874;2023-08-08T01:05:57;2.10;;;1.87;;
10934;SDS011;5520;45.752;4.874;2023-08-08T01:08:30;1.40;;;0.87;;
10934;SDS011;5520;45.752;4.874;2023-08-08T01:11:00;1.73;;;0.80;;
10934;SDS011;5520;45.752;4.874;2023-08-08T01:13:29;1.23;;;1.13;;
10934;SDS011;5520;45.752;4.874;2023-08-08T01:15:58;0.83;;;0.80;;
10934;SDS011;5520;45.752;4.874;2023-08-08T01:18:26;1.60;;;0.90;;
10934;SDS011;5520;45.752;4.874;2023-08-08T01:20:54;0.80;;;0.80;;
10934;SDS011;5520;45.752;4.874;2023-08-08T01:23:24;1.63;;;1.13;;
10934;SDS011;5520;45.752;4.874;2023-08-08T01:25:55;0.83;;;0.80;;
10934;SDS011;5520;45.752;4.874;2023-08-08T01:28:23;2.00;;;0.87;;
10934;SDS011;5520;45.752;4.874;2023-08-08T01:30:51;2.70;;;0.90;;
10934;SDS011;5520;45.752;4.874;2023-08-08T01:33:20;2.93;;;0.90;;
10934;SDS011;5520;45.752;4.874;2023-08-08T01:35:50;4.27;;;1.23;;
10934;SDS011;5520;45.752;4.874;2023-08-08T01:38:20;1.00;;;0.80;;
10934;SDS011;5520;45.752;4.874;2023-08-08T01:40:50;2.10;;;1.10;;
10934;SDS011;5520;45.752;4.874;2023-08-08T01:43:19;1.47;;;1.10;;
10934;SDS011;5520;45.752;4.874;2023-08-08T01:45:48;1.70;;;1.00;;
10934;SDS011;5520;45.752;4.874;2023-08-08T01:48:16;1.33;;;0.90;;
10934;SDS011;5520;45.752;4.874;2023-08-08T01:50:44;2.10;;;0.80;;
10934;SDS011;5520;45.752;4.874;2023-08-08T01:53:11;0.70;;;0.70;;
10934;SDS011;5520;45.752;4.874;2023-08-08T01:55:39;0.80;;;0.70;;
10934;SDS011;5520;45.752;4.874;2023-08-08T01:58:07;0.70;;;0.70;;
10934;SDS011;5520;45.752;4.874;2023-08-08T02:00:36;1.30;;;1.00;;
10934;SDS011;5520;45.752;4.874;2023-08-08T02:03:04;0.80;;;0.70;;
10934;SDS011;5520;45.752;4.874;2023-08-08T02:05:32;1.50;;;1.03;;
10934;SDS011;5520;45.752;4.874;2023-08-08T02:08:00;1.73;;;0.80;;
10934;SDS011;5520;45.752;4.874;2023-08-08T02:10:28;1.20;;;0.70;;
10934;SDS011;5520;45.752;4.874;2023-08-08T02:12:55;1.30;;;0.77;;
10934;SDS011;5520;45.752;4.874;2023-08-08T02:15:23;3.60;;;1.27;;
10934;SDS011;5520;45.752;4.874;2023-08-08T02:17:52;0.97;;;0.70;;
10934;SDS011;5520;45.752;4.874;2023-08-08T02:20:20;1.33;;;1.23;;
10934;SDS011;5520;45.752;4.874;2023-08-08T02:22:48;2.77;;;0.90;;
10934;SDS011;5520;45.752;4.874;2023-08-08T02:25:16;0.70;;;0.70;;
10934;SDS011;5520;45.752;4.874;2023-08-08T02:27:43;3.63;;;0.77;;
10934;SDS011;5520;45.752;4.874;2023-08-08T02:30:12;1.20;;;1.07;;
10934;SDS011;5520;45.752;4.874;2023-08-08T02:32:40;0.83;;;0.83;;
10934;SDS011;5520;45.752;4.874;2023-08-08T02:35:10;5.60;;;0.90;;
10934;SDS011;5520;45.752;4.874;2023-08-08T02:37:37;1.57;;;1.00;;
10934;SDS011;5520;45.752;4.874;2023-08-08T02:40:05;0.97;;;0.70;;
10934;SDS011;5520;45.752;4.874;2023-08-08T02:42:34;1.00;;;0.90;;
10934;SDS011;5520;45.752;4.874;2023-08-08T02:45:02;1.10;;;0.73;;
10934;SDS011;5520;45.752;4.874;2023-08-08T02:47:30;0.73;;;0.70;;
10934;SDS011;5520;45.752;4.874;2023-08-08T02:49:57;1.67;;;0.73;;
10934;SDS011;5520;45.752;4.874;2023-08-08T02:52:27;1.67;;;0.77;;
10934;SDS011;5520;45.752;4.874;2023-08-08T02:54:54;1.00;;;0.90;;
10934;SDS011;5520;45.752;4.874;2023-08-08T02:57:22;2.47;;;0.90;;
10934;SDS011;5520;45.752;4.874;2023-08-08T02:59:50;0.63;;;0.63;;
10934;SDS011;5520;45.752;4.874;2023-08-08T03:02:17;1.40;;;0.90;;
10934;SDS011;5520;45.752;4.874;2023-08-08T03:04:45;2.57;;;1.10;;
10934;SDS011;5520;45.752;4.874;2023-08-08T03:07:13;1.23;;;0.70;;
10934;SDS011;5520;45.752;4.874;2023-08-08T03:09:42;1.67;;;0.80;;
10934;SDS011;5520;45.752;4.874;2023-08-08T03:12:10;0.70;;;0.70;;
10934;SDS011;5520;45.752;4.874;2023-08-08T03:14:38;0.80;;;0.80;;
10934;SDS011;5520;45.752;4.874;2023-08-08T03:17:05;0.67;;;0.67;;
10934;SDS011;5520;45.752;4.874;2023-08-08T03:19:33;1.00;;;0.87;;
10934;SDS011;5520;45.752;4.874;2023-08-08T03:22:01;1.73;;;0.77;;
10934;SDS011;5520;45.752;4.874;2023-08-08T03:24:29;1.60;;;1.53;;
10934;SDS011;5520;45.752;4.874;2023-08-08T03:26:58;2.00;;;0.90;;
10934;SDS011;5520;45.752;4.874;2023-08-08T03:29:26;0.90;;;0.90;;
10934;SDS011;5520;45.752;4.874;2023-08-08T03:31:54;2.33;;;0.83;;
10934;SDS011;5520;45.752;4.874;2023-08-08T03:34:21;0.97;;;0.93;;
10934;SDS011;5520;45.752;4.874;2023-08-08T03:36:49;2.30;;;0.90;;
10934;SDS011;5520;45.752;4.874;2023-08-08T03:39:17;1.07;;;0.90;;
10934;SDS011;5520;45.752;4.874;2023-08-08T03:41:45;2.57;;;1.03;;
10934;SDS011;5520;45.752;4.874;2023-08-08T03:44:14;1.77;;;1.10;;
10934;SDS011;5520;45.752;4.874;2023-08-08T03:46:42;3.80;;;1.10;;
10934;SDS011;5520;45.752;4.874;2023-08-08T03:49:10;2.30;;;1.37;;
10934;SDS011;5520;45.752;4.874;2023-08-08T03:51:38;1.47;;;1.10;;
10934;SDS011;5520;45.752;4.874;2023-08-08T03:54:05;1.73;;;1.17;;
10934;SDS011;5520;45.752;4.874;2023-08-08T03:56:33;2.27;;;1.40;;
10934;SDS011;5520;45.752;4.874;2023-08-08T03:59:01;2.77;;;1.37;;
10934;SDS011;5520;45.752;4.874;2023-08-08T04:01:30;1.87;;;1.20;;
10934;SDS011;5520;45.752;4.874;2023-08-08T04:03:58;1.57;;;1.10;;
10934;SDS011;5520;45.752;4.874;2023-08-08T04:06:26;1.70;;;1.37;;
10934;SDS011;5520;45.752;4.874;2023-08-08T04:08:54;1.23;;;1.13;;
10934;SDS011;5520;45.752;4.874;2023-08-08T04:11:21;1.87;;;1.20;;
10934;SDS011;5520;45.752;4.874;2023-08-08T04:13:49;3.33;;;1.57;;
10934;SDS011;5520;45.752;4.874;2023-08-08T04:16:17;2.80;;;1.37;;
10934;SDS011;5520;45.752;4.874;2023-08-08T04:18:46;2.17;;;1.40;;
10934;SDS011;5520;45.752;4.874;2023-08-08T04:21:14;1.33;;;1.13;;
10934;SDS011;5520;45.752;4.874;2023-08-08T04:23:41;3.07;;;1.40;;
10934;SDS011;5520;45.752;4.874;2023-08-08T04:26:09;1.00;;;1.00;;
10934;SDS011;5520;45.752;4.874;2023-08-08T04:28:37;3.73;;;1.40;;
10934;SDS011;5520;45.752;4.874;2023-08-08T04:31:05;1.57;;;1.00;;
10934;SDS011;5520;45.752;4.874;2023-08-08T04:33:32;1.73;;;0.90;;
10934;SDS011;5520;45.752;4.874;2023-08-08T04:36:02;1.33;;;1.00;;
10934;SDS011;5520;45.752;4.874;2023-08-08T04:38:29;1.87;;;1.10;;
10934;SDS011;5520;45.752;4.874;2023-08-08T04:40:57;2.20;;;0.77;;
10934;SDS011;5520;45.752;4.874;2023-08-08T04:43:25;3.00;;;1.20;;
10934;SDS011;5520;45.752;4.874;2023-08-08T04:45:54;1.03;;;0.87;;
10934;SDS011;5520;45.752;4.874;2023-08-08T04:48:22;1.80;;;1.30;;
10934;SDS011;5520;45.752;4.874;2023-08-08T04:50:49;1.10;;;1.00;;
10934;SDS011;5520;45.752;4.874;2023-08-08T04:53:18;2.17;;;1.10;;
10934;SDS011;5520;45.752;4.874;2023-08-08T04:55:46;6.07;;;1.40;;
10934;SDS011;5520;45.752;4.874;2023-08-08T04:58:14;3.97;;;1.30;;
10934;SDS011;5520;45.752;4.874;2023-08-08T05:00:42;2.27;;;1.27;;
10934;SDS011;5520;45.752;4.874;2023-08-08T05:03:09;1.27;;;1.17;;
10934;SDS011;5520;45.752;4.874;2023-08-08T05:05:38;1.63;;;1.20;;
10934;SDS011;5520;45.752;4.874;2023-08-08T05:08:05;7.93;;;4.27;;
10934;SDS011;5520;45.752;4.874;2023-08-08T05:10:34;8.07;;;4.07;;
10934;SDS011;5520;45.752;4.874;2023-08-08T05:13:02;8.60;;;4.00;;
10934;SDS011;5520;45.752;4.874;2023-08-08T05:15:30;6.03;;;3.43;;
10934;SDS011;5520;45.752;4.874;2023-08-08T05:17:58;2.93;;;2.33;;
10934;SDS011;5520;45.752;4.874;2023-08-08T05:20:26;4.13;;;2.10;;
10934;SDS011;5520;45.752;4.874;2023-08-08T05:22:53;4.73;;;2.60;;
10934;SDS011;5520;45.752;4.874;2023-08-08T05:25:21;4.50;;;1.90;;
10934;SDS011;5520;45.752;4.874;2023-08-08T05:27:50;3.20;;;1.70;;
10934;SDS011;5520;45.752;4.874;2023-08-08T05:30:19;2.07;;;1.57;;
10934;SDS011;5520;45.752;4.874;2023-08-08T05:32:47;1.77;;;1.20;;
10934;SDS011;5520;45.752;4.874;2023-08-08T05:35:15;1.93;;;1.20;;
10934;SDS011;5520;45.752;4.874;2023-08-08T05:37:43;2.13;;;1.37;;
10934;SDS011;5520;45.752;4.874;2023-08-08T05:40:11;1.70;;;1.60;;
10934;SDS011;5520;45.752;4.874;2023-08-08T05:42:39;2.87;;;1.17;;
10934;SDS011;5520;45.752;4.874;2023-08-08T05:45:09;1.77;;;1.03;;
10934;SDS011;5520;45.752;4.874;2023-08-08T05:47:36;2.33;;;1.37;;
10934;SDS011;5520;45.752;4.874;2023-08-08T05:50:05;1.90;;;1.33;;
10934;SDS011;5520;45.752;4.874;2023-08-08T05:52:33;4.20;;;1.30;;
10934;SDS011;5520;45.752;4.874;2023-08-08T05:55:01;1.63;;;1.30;;
10934;SDS011;5520;45.752;4.874;2023-08-08T05:57:28;7.13;;;1.87;;
10934;SDS011;5520;45.752;4.874;2023-08-08T05:59:56;2.07;;;1.57;;
10934;SDS011;5520;45.752;4.874;2023-08-08T06:02:27;3.67;;;1.43;;
10934;SDS011;5520;45.752;4.874;2023-08-08T06:04:55;2.47;;;1.30;;
10934;SDS011;5520;45.752;4.874;2023-08-08T06:07:23;3.97;;;1.73;;
10934;SDS011;5520;45.752;4.874;2023-08-08T06:09:51;1.70;;;1.60;;
10934;SDS011;5520;45.752;4.874;2023-08-08T06:12:18;4.80;;;1.53;;
10934;SDS011;5520;45.752;4.874;2023-08-08T06:14:46;4.53;;;1.77;;
10934;SDS011;5520;45.752;4.874;2023-08-08T06:17:14;1.60;;;1.50;;
10934;SDS011;5520;45.752;4.874;2023-08-08T06:19:43;3.07;;;2.00;;
10934;SDS011;5520;45.752;4.874;2023-08-08T06:22:11;1.40;;;1.30;;
10934;SDS011;5520;45.752;4.874;2023-08-08T06:24:39;4.93;;;1.47;;
10934;SDS011;5520;45.752;4.874;2023-08-08T06:27:07;2.50;;;1.30;;
10934;SDS011;5520;45.752;4.874;2023-08-08T06:29:35;2.03;;;1.47;;
10934;SDS011;5520;45.752;4.874;2023-08-08T06:32:03;1.47;;;1.37;;
10934;SDS011;5520;45.752;4.874;2023-08-08T06:34:30;1.53;;;1.30;;
10934;SDS011;5520;45.752;4.874;2023-08-08T06:37:00;2.57;;;1.53;;
10934;SDS011;5520;45.752;4.874;2023-08-08T06:39:27;3.13;;;1.20;;
10934;SDS011;5520;45.752;4.874;2023-08-08T06:41:56;1.40;;;1.27;;
10934;SDS011;5520;45.752;4.874;2023-08-08T06:44:24;1.77;;;1.30;;
10934;SDS011;5520;45.752;4.874;2023-08-08T06:46:52;4.00;;;1.10;;
10934;SDS011;5520;45.752;4.874;2023-08-08T06:49:20;3.50;;;1.40;;
10934;SDS011;5520;45.752;4.874;2023-08-08T06:51:47;1.83;;;1.10;;
10934;SDS011;5520;45.752;4.874;2023-08-08T06:54:16;2.17;;;1.10;;
10934;SDS011;5520;45.752;4.874;2023-08-08T06:56:44;4.27;;;1.40;;
10934;SDS011;5520;45.752;4.874;2023-08-08T06:59:12;2.47;;;1.37;;
10934;SDS011;5520;45.752;4.874;2023-08-08T07:01:40;2.17;;;1.33;;
10934;SDS011;5520;45.752;4.874;2023-08-08T07:04:07;5.70;;;1.90;;
10934;SDS011;5520;45.752;4.874;2023-08-08T07:06:35;5.53;;;1.30;;
10934;SDS011;5520;45.752;4.874;2023-08-08T07:09:03;1.27;;;1.17;;
10934;SDS011;5520;45.752;4.874;2023-08-08T07:11:32;3.37;;;1.30;;
10934;SDS011;5520;45.752;4.874;2023-08-08T07:14:00;1.00;;;1.00;;
10934;SDS011;5520;45.752;4.874;2023-08-08T07:16:28;1.20;;;1.10;;
10934;SDS011;5520;45.752;4.874;2023-08-08T07:18:55;1.83;;;1.23;;
10934;SDS011;5520;45.752;4.874;2023-08-08T07:21:23;3.20;;;1.50;;
10934;SDS011;5520;45.752;4.874;2023-08-08T07:23:51;2.33;;;1.33;;
10934;SDS011;5520;45.752;4.874;2023-08-08T07:26:18;1.50;;;1.30;;
10934;SDS011;5520;45.752;4.874;2023-08-08T07:28:49;4.23;;;1.80;;
10934;SDS011;5520;45.752;4.874;2023-08-08T07:31:17;2.93;;;1.37;;
10934;SDS011;5520;45.752;4.874;2023-08-08T07:33:45;1.93;;;1.30;;
10934;SDS011;5520;45.752;4.874;2023-08-08T07:36:13;2.10;;;1.23;;
10934;SDS011;5520;45.752;4.874;2023-08-08T07:38:41;1.63;;;1.30;;
10934;SDS011;5520;45.752;4.874;2023-08-08T07:41:08;2.63;;;1.33;;
10934;SDS011;5520;45.752;4.874;2023-08-08T07:43:36;2.40;;;1.10;;
10934;SDS011;5520;45.752;4.874;2023-08-08T07:46:05;3.63;;;1.10;;
10934;SDS011;5520;45.752;4.874;2023-08-08T07:48:33;2.67;;;1.03;;
10934;SDS011;5520;45.752;4.874;2023-08-08T07:51:01;2.80;;;1.00;;
10934;SDS011;5520;45.752;4.874;2023-08-08T07:53:29;2.07;;;1.23;;
10934;SDS011;5520;45.752;4.874;2023-08-08T07:55:57;4.10;;;1.50;;
10934;SDS011;5520;45.752;4.874;2023-08-08T07:58:25;1.93;;;1.07;;
10934;SDS011;5520;45.752;4.874;2023-08-08T08:00:53;2.60;;;1.00;;
10934;SDS011;5520;45.752;4.874;2023-08-08T08:03:22;1.17;;;0.80;;
10934;SDS011;5520;45.752;4.874;2023-08-08T08:05:50;2.03;;;1.10;;
10934;SDS011;5520;45.752;4.874;2023-08-08T08:08:18;4.87;;;1.30;;
10934;SDS011;5520;45.752;4.874;2023-08-08T08:10:47;2.20;;;1.30;;
10934;SDS011;5520;45.752;4.874;2023-08-08T08:13:17;1.23;;;0.90;;
10934;SDS011;5520;45.752;4.874;2023-08-08T08:15:45;2.30;;;1.20;;
10934;SDS011;5520;45.752;4.874;2023-08-08T08:18:13;2.40;;;1.10;;
10934;SDS011;5520;45.752;4.874;2023-08-08T08:20:46;7.07;;;1.23;;
10934;SDS011;5520;45.752;4.874;2023-08-08T08:23:14;1.37;;;1.07;;
10934;SDS011;5520;45.752;4.874;2023-08-08T08:25:41;6.30;;;1.07;;
10934;SDS011;5520;45.752;4.874;2023-08-08T08:28:09;1.00;;;0.90;;
10934;SDS011;5520;45.752;4.874;2023-08-08T08:30:37;3.43;;;1.13;;
10934;SDS011;5520;45.752;4.874;2023-08-08T08:33:05;3.00;;;0.93;;
10934;SDS011;5520;45.752;4.874;2023-08-08T08:35:34;1.90;;;1.13;;
10934;SDS011;5520;45.752;4.874;2023-08-08T08:38:03;1.63;;;0.80;;
10934;SDS011;5520;45.752;4.874;2023-08-08T08:40:31;1.23;;;0.87;;
10934;SDS011;5520;45.752;4.874;2023-08-08T08:43:01;1.10;;;0.97;;
10934;SDS011;5520;45.752;4.874;2023-08-08T08:45:30;3.60;;;1.00;;
10934;SDS011;5520;45.752;4.874;2023-08-08T08:47:58;1.20;;;1.10;;
10934;SDS011;5520;45.752;4.874;2023-08-08T08:50:27;5.23;;;1.10;;
10934;SDS011;5520;45.752;4.874;2023-08-08T08:52:55;3.93;;;3.27;;
10934;SDS011;5520;45.752;4.874;2023-08-08T08:55:24;2.33;;;0.90;;
10934;SDS011;5520;45.752;4.874;2023-08-08T08:57:52;2.67;;;1.13;;
10934;SDS011;5520;45.752;4.874;2023-08-08T09:00:21;2.43;;;1.63;;
10934;SDS011;5520;45.752;4.874;2023-08-08T09:02:48;4.83;;;1.40;;
10934;SDS011;5520;45.752;4.874;2023-08-08T09:05:16;0.90;;;0.80;;
10934;SDS011;5520;45.752;4.874;2023-08-08T09:07:48;1.63;;;1.27;;
10934;SDS011;5520;45.752;4.874;2023-08-08T09:10:16;1.17;;;0.80;;
10934;SDS011;5520;45.752;4.874;2023-08-08T09:12:45;2.07;;;1.00;;
10934;SDS011;5520;45.752;4.874;2023-08-08T09:15:13;2.57;;;0.90;;
10934;SDS011;5520;45.752;4.874;2023-08-08T09:17:41;1.77;;;0.93;;
10934;SDS011;5520;45.752;4.874;2023-08-08T09:20:14;2.73;;;1.03;;
10934;SDS011;5520;45.752;4.874;2023-08-08T09:22:42;1.37;;;0.80;;
10934;SDS011;5520;45.752;4.874;2023-08-08T09:25:10;2.33;;;0.90;;
10934;SDS011;5520;45.752;4.874;2023-08-08T09:27:39;2.40;;;0.80;;
10934;SDS011;5520;45.752;4.874;2023-08-08T09:30:09;2.93;;;1.20;;
10934;SDS011;5520;45.752;4.874;2023-08-08T09:32:38;1.53;;;0.60;;
10934;SDS011;5520;45.752;4.874;2023-08-08T09:35:06;3.73;;;0.90;;
10934;SDS011;5520;45.752;4.874;2023-08-08T09:37:36;1.83;;;0.73;;
10934;SDS011;5520;45.752;4.874;2023-08-08T09:40:05;3.23;;;1.00;;
10934;SDS011;5520;45.752;4.874;2023-08-08T09:42:34;4.23;;;0.77;;
10934;SDS011;5520;45.752;4.874;2023-08-08T09:45:02;1.77;;;0.80;;
10934;SDS011;5520;45.752;4.874;2023-08-08T09:47:32;1.70;;;1.00;;
10934;SDS011;5520;45.752;4.874;2023-08-08T09:50:00;1.73;;;0.77;;
10934;SDS011;5520;45.752;4.874;2023-08-08T09:52:31;3.23;;;0.97;;
10934;SDS011;5520;45.752;4.874;2023-08-08T09:55:00;4.17;;;1.00;;
10934;SDS011;5520;45.752;4.874;2023-08-08T09:57:28;3.70;;;1.50;;
10934;SDS011;5520;45.752;4.874;2023-08-08T09:59:56;2.37;;;0.60;;
10934;SDS011;5520;45.752;4.874;2023-08-08T10:02:24;1.50;;;0.80;;
10934;SDS011;5520;45.752;4.874;2023-08-08T10:04:54;5.07;;;0.87;;
10934;SDS011;5520;45.752;4.874;2023-08-08T10:07:25;1.63;;;0.80;;
10934;SDS011;5520;45.752;4.874;2023-08-08T10:09:52;0.50;;;0.50;;
10934;SDS011;5520;45.752;4.874;2023-08-08T10:12:20;1.90;;;1.13;;
10934;SDS011;5520;45.752;4.874;2023-08-08T10:14:49;1.10;;;0.67;;
10934;SDS011;5520;45.752;4.874;2023-08-08T10:17:17;0.80;;;0.67;;
10934;SDS011;5520;45.752;4.874;2023-08-08T10:19:52;2.77;;;0.80;;
10934;SDS011;5520;45.752;4.874;2023-08-08T10:22:22;3.67;;;0.90;;
10934;SDS011;5520;45.752;4.874;2023-08-08T10:24:51;3.23;;;1.50;;
10934;SDS011;5520;45.752;4.874;2023-08-08T10:27:28;1.40;;;0.70;;
10934;SDS011;5520;45.752;4.874;2023-08-08T10:30:02;1.27;;;0.80;;
10934;SDS011;5520;45.752;4.874;2023-08-08T10:32:37;0.97;;;0.80;;
10934;SDS011;5520;45.752;4.874;2023-08-08T10:35:06;1.70;;;0.70;;
10934;SDS011;5520;45.752;4.874;2023-08-08T10:37:35;0.60;;;0.60;;
10934;SDS011;5520;45.752;4.874;2023-08-08T10:40:04;0.80;;;0.73;;
10934;SDS011;5520;45.752;4.874;2023-08-08T10:42:40;1.10;;;0.80;;
10934;SDS011;5520;45.752;4.874;2023-08-08T10:45:09;1.37;;;0.70;;
10934;SDS011;5520;45.752;4.874;2023-08-08T10:47:37;1.70;;;0.77;;
10934;SDS011;5520;45.752;4.874;2023-08-08T10:50:06;1.17;;;0.80;;
10934;SDS011;5520;45.752;4.874;2023-08-08T10:52:49;1.40;;;0.60;;
10934;SDS011;5520;45.752;4.874;2023-08-08T10:55:21;3.17;;;1.60;;
10934;SDS011;5520;45.752;4.874;2023-08-08T10:57:56;2.23;;;0.77;;
10934;SDS011;5520;45.752;4.874;2023-08-08T11:00:26;1.83;;;0.90;;
10934;SDS011;5520;45.752;4.874;2023-08-08T11:02:54;1.17;;;0.87;;
10934;SDS011;5520;45.752;4.874;2023-08-08T11:05:22;1.47;;;0.80;;
10934;SDS011;5520;45.752;4.874;2023-08-08T11:07:51;0.87;;;0.83;;
10934;SDS011;5520;45.752;4.874;2023-08-08T11:10:21;0.93;;;0.50;;
10934;SDS011;5520;45.752;4.874;2023-08-08T11:12:57;1.60;;;0.83;;
10934;SDS011;5520;45.752;4.874;2023-08-08T11:15:25;1.03;;;0.90;;
10934;SDS011;5520;45.752;4.874;2023-08-08T11:17:54;0.90;;;0.90;;
10934;SDS011;5520;45.752;4.874;2023-08-08T11:20:22;1.10;;;0.80;;
10934;SDS011;5520;45.752;4.874;2023-08-08T11:22:52;0.73;;;0.73;;
10934;SDS011;5520;45.752;4.874;2023-08-08T11:25:20;0.70;;;0.70;;
10934;SDS011;5520;45.752;4.874;2023-08-08T11:27:49;2.43;;;0.93;;
10934;SDS011;5520;45.752;4.874;2023-08-08T11:30:17;0.77;;;0.73;;
10934;SDS011;5520;45.752;4.874;2023-08-08T11:32:45;4.53;;;0.70;;
10934;SDS011;5520;45.752;4.874;2023-08-08T11:35:34;0.93;;;0.80;;
10934;SDS011;5520;45.752;4.874;2023-08-08T11:38:03;0.70;;;0.70;;
10934;SDS011;5520;45.752;4.874;2023-08-08T11:40:31;1.03;;;0.53;;
10934;SDS011;5520;45.752;4.874;2023-08-08T11:42:59;3.20;;;1.20;;
10934;SDS011;5520;45.752;4.874;2023-08-08T11:45:27;0.73;;;0.73;;
10934;SDS011;5520;45.752;4.874;2023-08-08T11:47:55;2.17;;;0.90;;
10934;SDS011;5520;45.752;4.874;2023-08-08T11:50:24;2.07;;;0.70;;
10934;SDS011;5520;45.752;4.874;2023-08-08T11:52:54;1.30;;;0.83;;
10934;SDS011;5520;45.752;4.874;2023-08-08T11:55:28;0.60;;;0.60;;
10934;SDS011;5520;45.752;4.874;2023-08-08T11:57:56;0.90;;;0.60;;
10934;SDS011;5520;45.752;4.874;2023-08-08T12:00:26;0.87;;;0.70;;
10934;SDS011;5520;45.752;4.874;2023-08-08T12:02:54;0.80;;;0.80;;
10934;SDS011;5520;45.752;4.874;2023-08-08T12:05:23;1.27;;;0.90;;
10934;SDS011;5520;45.752;4.874;2023-08-08T12:07:51;0.97;;;0.80;;
10934;SDS011;5520;45.752;4.874;2023-08-08T12:10:19;0.73;;;0.73;;
10934;SDS011;5520;45.752;4.874;2023-08-08T12:12:53;0.67;;;0.67;;
10934;SDS011;5520;45.752;4.874;2023-08-08T12:15:23;1.57;;;0.70;;
10934;SDS011;5520;45.752;4.874;2023-08-08T12:17:50;0.90;;;0.83;;
10934;SDS011;5520;45.752;4.874;2023-08-08T12:20:18;1.17;;;0.80;;
10934;SDS011;5520;45.752;4.874;2023-08-08T12:22:46;1.20;;;1.10;;
10934;SDS011;5520;45.752;4.874;2023-08-08T12:25:14;1.50;;;0.87;;
10934;SDS011;5520;45.752;4.874;2023-08-08T12:27:42;0.67;;;0.67;;
10934;SDS011;5520;45.752;4.874;2023-08-08T12:30:12;1.20;;;1.10;;
10934;SDS011;5520;45.752;4.874;2023-08-08T12:32:39;1.07;;;0.90;;
10934;SDS011;5520;45.752;4.874;2023-08-08T12:35:08;1.30;;;0.77;;
10934;SDS011;5520;45.752;4.874;2023-08-08T12:37:35;0.63;;;0.63;;
10934;SDS011;5520;45.752;4.874;2023-08-08T12:40:03;0.90;;;0.77;;
10934;SDS011;5520;45.752;4.874;2023-08-08T12:42:33;0.80;;;0.80;;
10934;SDS011;5520;45.752;4.874;2023-08-08T12:45:01;0.60;;;0.60;;
10934;SDS011;5520;45.752;4.874;2023-08-08T12:47:31;1.73;;;1.23;;
10934;SDS011;5520;45.752;4.874;2023-08-08T12:49:59;1.70;;;1.20;;
10934;SDS011;5520;45.752;4.874;2023-08-08T12:52:26;3.40;;;1.23;;
10934;SDS011;5520;45.752;4.874;2023-08-08T12:54:54;0.90;;;0.90;;
10934;SDS011;5520;45.752;4.874;2023-08-08T12:57:22;2.57;;;1.23;;
10934;SDS011;5520;45.752;4.874;2023-08-08T12:59:50;1.87;;;0.80;;
10934;SDS011;5520;45.752;4.874;2023-08-08T13:02:17;0.90;;;0.90;;
10934;SDS011;5520;45.752;4.874;2023-08-08T13:04:46;0.57;;;0.57;;
10934;SDS011;5520;45.752;4.874;2023-08-08T13:07:15;1.10;;;1.00;;
10934;SDS011;5520;45.752;4.874;2023-08-08T13:09:43;1.77;;;1.13;;
10934;SDS011;5520;45.752;4.874;2023-08-08T13:12:10;2.13;;;0.80;;
10934;SDS011;5520;45.752;4.874;2023-08-08T13:14:38;1.80;;;0.60;;
10934;SDS011;5520;45.752;4.874;2023-08-08T13:17:06;1.30;;;1.10;;
10934;SDS011;5520;45.752;4.874;2023-08-08T13:19:34;2.90;;;0.90;;
10934;SDS011;5520;45.752;4.874;2023-08-08T13:22:03;2.83;;;0.63;;
10934;SDS011;5520;45.752;4.874;2023-08-08T13:24:31;2.00;;;0.70;;
10934;SDS011;5520;45.752;4.874;2023-08-08T13:26:59;1.70;;;1.00;;
10934;SDS011;5520;45.752;4.874;2023-08-08T13:29:27;0.63;;;0.63;;
10934;SDS011;5520;45.752;4.874;2023-08-08T13:31:55;2.20;;;0.93;;
10934;SDS011;5520;45.752;4.874;2023-08-08T13:34:23;0.70;;;0.70;;
10934;SDS011;5520;45.752;4.874;2023-08-08T13:36:50;0.90;;;0.77;;
10934;SDS011;5520;45.752;4.874;2023-08-08T13:39:19;0.90;;;0.77;;
10934;SDS011;5520;45.752;4.874;2023-08-08T13:41:47;2.10;;;0.90;;
10934;SDS011;5520;45.752;4.874;2023-08-08T13:44:15;2.93;;;0.80;;
10934;SDS011;5520;45.752;4.874;2023-08-08T13:46:43;1.27;;;1.00;;
10934;SDS011;5520;45.752;4.874;2023-08-08T13:49:10;2.33;;;0.77;;
10934;SDS011;5520;45.752;4.874;2023-08-08T13:51:38;1.53;;;0.90;;
10934;SDS011;5520;45.752;4.874;2023-08-08T13:54:09;2.33;;;1.10;;
10934;SDS011;5520;45.752;4.874;2023-08-08T13:56:38;2.50;;;1.80;;
10934;SDS011;5520;45.752;4.874;2023-08-08T13:59:06;3.73;;;1.30;;
10934;SDS011;5520;45.752;4.874;2023-08-08T14:01:34;1.53;;;1.00;;
10934;SDS011;5520;45.752;4.874;2023-08-08T14:04:02;1.37;;;0.97;;
10934;SDS011;5520;45.752;4.874;2023-08-08T14:06:29;1.37;;;1.03;;
10934;SDS011;5520;45.752;4.874;2023-08-08T14:08:57;0.87;;;0.80;;
10934;SDS011;5520;45.752;4.874;2023-08-08T14:11:25;1.57;;;1.10;;
10934;SDS011;5520;45.752;4.874;2023-08-08T14:13:54;1.57;;;1.20;;
10934;SDS011;5520;45.752;4.874;2023-08-08T14:16:22;3.03;;;0.90;;
10934;SDS011;5520;45.752;4.874;2023-08-08T14:18:50;1.13;;;0.93;;
10934;SDS011;5520;45.752;4.874;2023-08-08T14:21:17;3.47;;;1.00;;
10934;SDS011;5520;45.752;4.874;2023-08-08T14:23:45;3.03;;;1.03;;
10934;SDS011;5520;45.752;4.874;2023-08-08T14:26:13;2.30;;;0.83;;
10934;SDS011;5520;45.752;4.874;2023-08-08T14:28:41;1.50;;;1.10;;
10934;SDS011;5520;45.752;4.874;2023-08-08T14:31:10;1.03;;;0.90;;
10934;SDS011;5520;45.752;4.874;2023-08-08T14:33:38;1.03;;;0.97;;
10934;SDS011;5520;45.752;4.874;2023-08-08T14:36:06;5.83;;;1.00;;
10934;SDS011;5520;45.752;4.874;2023-08-08T14:38:34;0.80;;;0.80;;
10934;SDS011;5520;45.752;4.874;2023-08-08T14:41:02;1.00;;;0.80;;
10934;SDS011;5520;45.752;4.874;2023-08-08T14:43:30;1.37;;;1.00;;
10934;SDS011;5520;45.752;4.874;2023-08-08T14:45:58;1.20;;;1.10;;
10934;SDS011;5520;45.752;4.874;2023-08-08T14:48:27;1.97;;;1.07;;
10934;SDS011;5520;45.752;4.874;2023-08-08T14:50:55;2.27;;;1.10;;
10934;SDS011;5520;45.752;4.874;2023-08-08T14:53:22;4.37;;;0.90;;
10934;SDS011;5520;45.752;4.874;2023-08-08T14:55:50;4.37;;;1.03;;
10934;SDS011;5520;45.752;4.874;2023-08-08T14:58:18;3.47;;;1.00;;
10934;SDS011;5520;45.752;4.874;2023-08-08T15:00:46;0.70;;;0.70;;
10934;SDS011;5520;45.752;4.874;2023-08-08T15:03:14;1.13;;;0.80;;
10934;SDS011;5520;45.752;4.874;2023-08-08T15:05:44;1.53;;;0.70;;
10934;SDS011;5520;45.752;4.874;2023-08-08T15:08:15;1.53;;;0.90;;